Главная страница
METAR-TAF:

METAR-TAF

Аэропорты :

Ängelholm–Helsingborg

Хельсингборг, Швеция

широта: 56-17-46N, долгота: 012-50-50E, высота над уровнем моря: 21 м

Текущие метеонаблюдения

Эта сводка был подготовлена 13 минут назад, в 11:20 UTC
Ветер 8 Узел от юго-западный
Температура 28°C
Влажность 55%
Давление 1020 hPa
Видимость 10 км и более
Нет облачности ниже 1500 м, и нет кучево-дождевой облачности

METAR: ESTA 091120Z 23008KT CAVOK 28/18 Q1020

Время: 13:33 (11:33 UTC)

Прогноз

Эта сводка был подготовлена 3 часа и 33 минут назад, в 08:00 UTC
Прогноз действительный с 09-го 09 UTC до 09-го 18 UTC
Ветер 6 Узел от северо-западный
Видимость 10 км и более
Нет облачности ниже 1500 м, и нет кучево-дождевой облачности

TAF: ESTA 090800Z 0909/0918 32006KT CAVOK

Метеонаблюдения и прогнозы для более 4000 аэропортов (сводки METAR и TAF).

Имеющиеся станции представлены на карте желтыми и красными точками.

Чтобы увидеть название станции, наведите на нее мышь.

Затем щелкните, чтобы увидеть метеонаблюдения и метеопрогнозы.

Управление картой: чтобы увеличить масштаб, щелкните зеленые кнопки с черным крестиком; чтобы уменьшить масштаб, щелкните зеленую кнопку с тире; для просмотра соседних карт щелкайте зеленые стрелки.


METAR-TAF: